sensor_id;sensor_type;location;lat;lon;timestamp;pressure;altitude;pressure_sealevel;temperature;humidity
12073;BME280;6098;49.004;8.372;2023-04-02T00:20:13;99629.38;;;9.75;92.55
12073;BME280;6098;49.004;8.372;2023-04-02T00:35:02;99637.01;;;9.72;92.58
12073;BME280;6098;49.004;8.372;2023-04-02T01:04:59;99648.10;;;9.80;87.78
12073;BME280;6098;49.004;8.372;2023-04-02T01:20:11;99652.70;;;9.85;87.18
12073;BME280;6098;49.004;8.372;2023-04-02T01:35:03;99667.42;;;9.82;86.52
12073;BME280;6098;49.004;8.372;2023-04-02T01:50:02;99668.48;;;9.78;89.63
12073;BME280;6098;49.004;8.372;2023-04-02T02:04:55;99679.43;;;9.79;88.71
12073;BME280;6098;49.004;8.372;2023-04-02T02:19:47;99698.90;;;9.78;90.70
12073;BME280;6098;49.004;8.372;2023-04-02T02:34:39;99706.33;;;9.70;93.57
12073;BME280;6098;49.004;8.372;2023-04-02T02:49:30;99721.86;;;9.58;96.29
12073;BME280;6098;49.004;8.372;2023-04-02T03:04:20;99728.98;;;9.47;97.44
12073;BME280;6098;49.004;8.372;2023-04-02T03:34:12;99755.44;;;9.57;97.59
12073;BME280;6098;49.004;8.372;2023-04-02T03:49:06;99767.91;;;9.64;96.65
12073;BME280;6098;49.004;8.372;2023-04-02T04:04:01;99783.31;;;9.65;96.15
12073;BME280;6098;49.004;8.372;2023-04-02T04:18:50;99795.36;;;9.52;100.00
12073;BME280;6098;49.004;8.372;2023-04-02T04:33:39;99811.34;;;9.49;100.00
12073;BME280;6098;49.004;8.372;2023-04-02T05:18:37;99875.05;;;9.54;99.58
12073;BME280;6098;49.004;8.372;2023-04-02T05:33:27;99897.29;;;9.50;100.00
12073;BME280;6098;49.004;8.372;2023-04-02T05:48:26;99911.47;;;9.59;99.93
12073;BME280;6098;49.004;8.372;2023-04-02T06:18:29;99955.98;;;9.69;99.15
12073;BME280;6098;49.004;8.372;2023-04-02T06:33:18;99982.14;;;9.77;98.43
12073;BME280;6098;49.004;8.372;2023-04-02T07:03:00;100021.80;;;9.88;97.87
12073;BME280;6098;49.004;8.372;2023-04-02T07:17:51;100041.41;;;9.94;97.27
12073;BME280;6098;49.004;8.372;2023-04-02T07:32:43;100056.65;;;10.21;96.04
12073;BME280;6098;49.004;8.372;2023-04-02T07:47:34;100077.92;;;10.40;94.78
12073;BME280;6098;49.004;8.372;2023-04-02T08:02:25;100101.13;;;10.65;92.62
12073;BME280;6098;49.004;8.372;2023-04-02T08:17:17;100120.27;;;10.81;90.61
12073;BME280;6098;49.004;8.372;2023-04-02T08:32:09;100132.92;;;10.95;88.61
12073;BME280;6098;49.004;8.372;2023-04-02T08:47:01;100158.02;;;11.27;87.63
12073;BME280;6098;49.004;8.372;2023-04-02T09:02:05;100181.57;;;11.43;84.14
12073;BME280;6098;49.004;8.372;2023-04-02T09:16:58;100211.19;;;11.73;82.55
12073;BME280;6098;49.004;8.372;2023-04-02T09:31:50;100224.09;;;12.19;79.19
12073;BME280;6098;49.004;8.372;2023-04-02T09:46:54;100231.40;;;12.59;75.32
12073;BME280;6098;49.004;8.372;2023-04-02T10:16:49;100255.70;;;13.22;70.01
12073;BME280;6098;49.004;8.372;2023-04-02T10:32:01;100263.63;;;13.15;68.70
12073;BME280;6098;49.004;8.372;2023-04-02T10:47:14;100279.45;;;13.00;71.02
12073;BME280;6098;49.004;8.372;2023-04-02T11:02:08;100296.01;;;13.06;69.89
12073;BME280;6098;49.004;8.372;2023-04-02T11:16:57;100310.67;;;13.14;69.93
12073;BME280;6098;49.004;8.372;2023-04-02T11:31:49;100330.13;;;13.32;68.91
12073;BME280;6098;49.004;8.372;2023-04-02T11:46:41;100353.27;;;13.74;67.19
12073;BME280;6098;49.004;8.372;2023-04-02T12:17:01;100363.77;;;14.02;66.08
12073;BME280;6098;49.004;8.372;2023-04-02T12:31:50;100383.80;;;13.76;66.65
12073;BME280;6098;49.004;8.372;2023-04-02T12:46:40;100416.94;;;12.99;79.08
12073;BME280;6098;49.004;8.372;2023-04-02T13:01:29;100437.81;;;12.52;83.99
12073;BME280;6098;49.004;8.372;2023-04-02T13:31:12;100461.50;;;11.98;88.23
12073;BME280;6098;49.004;8.372;2023-04-02T13:45:58;100480.14;;;11.66;92.98
12073;BME280;6098;49.004;8.372;2023-04-02T14:00:48;100500.48;;;11.33;94.70
12073;BME280;6098;49.004;8.372;2023-04-02T14:46:02;100562.37;;;10.99;96.56
12073;BME280;6098;49.004;8.372;2023-04-02T15:01:08;100585.82;;;10.75;96.82
12073;BME280;6098;49.004;8.372;2023-04-02T15:31:10;100622.57;;;10.48;98.57
12073;BME280;6098;49.004;8.372;2023-04-02T16:01:24;100661.13;;;10.31;96.47
12073;BME280;6098;49.004;8.372;2023-04-02T16:16:30;100693.41;;;10.31;93.82
12073;BME280;6098;49.004;8.372;2023-04-02T16:46:25;100739.50;;;10.12;91.76
12073;BME280;6098;49.004;8.372;2023-04-02T17:01:26;100761.28;;;10.06;90.82
12073;BME280;6098;49.004;8.372;2023-04-02T17:16:18;100780.88;;;9.71;87.58
12073;BME280;6098;49.004;8.372;2023-04-02T17:46:22;100846.41;;;9.46;86.39
12073;BME280;6098;49.004;8.372;2023-04-02T19:01:30;101028.60;;;8.44;75.54
12073;BME280;6098;49.004;8.372;2023-04-02T19:31:50;101098.28;;;8.11;72.64
12073;BME280;6098;49.004;8.372;2023-04-02T19:46:43;101122.42;;;7.90;68.72
12073;BME280;6098;49.004;8.372;2023-04-02T20:01:32;101143.72;;;7.79;68.42
12073;BME280;6098;49.004;8.372;2023-04-02T20:16:21;101164.83;;;7.49;67.62
12073;BME280;6098;49.004;8.372;2023-04-02T20:31:15;101200.98;;;7.41;66.73
12073;BME280;6098;49.004;8.372;2023-04-02T20:46:07;101222.33;;;7.20;63.76
12073;BME280;6098;49.004;8.372;2023-04-02T21:16:02;101257.20;;;7.08;62.03
12073;BME280;6098;49.004;8.372;2023-04-02T21:30:51;101270.89;;;7.00;62.52
12073;BME280;6098;49.004;8.372;2023-04-02T21:45:41;101266.55;;;6.93;61.56
12073;BME280;6098;49.004;8.372;2023-04-02T22:00:31;101270.52;;;6.92;61.77
12073;BME280;6098;49.004;8.372;2023-04-02T22:15:22;101271.61;;;6.69;61.43
12073;BME280;6098;49.004;8.372;2023-04-02T22:30:13;101282.55;;;6.73;60.45
12073;BME280;6098;49.004;8.372;2023-04-02T22:45:03;101294.98;;;6.61;59.04
12073;BME280;6098;49.004;8.372;2023-04-02T22:59:53;101290.09;;;6.66;59.27
12073;BME280;6098;49.004;8.372;2023-04-02T23:14:43;101290.08;;;6.65;58.76
12073;BME280;6098;49.004;8.372;2023-04-02T23:29:34;101292.27;;;6.67;58.28
12073;BME280;6098;49.004;8.372;2023-04-02T23:44:25;101290.48;;;6.71;58.80
12073;BME280;6098;49.004;8.372;2023-04-02T23:59:15;101285.30;;;6.60;59.11
